Latest Coastal Weather Observations for Bunbury

IDW60701

Issued at 11:55 pm WST Friday 18 April 2014 (issued every 10 minutes, with the page automatically refreshed every 10 minutes)

About coastal observations | Map of coastal stations | Coastal observations for WA | Marine services | Other Formats
Station Details ID: 009965 Name: BUNBURY Lat: -33.36 Lon: 115.64 Height: 5.2 m
Data from the previous 72 hours. | See also: Recent months at Bunbury
Date/Time
WST
Temp

°C
Wind Pressure Rain
since 9am
mm
Weather Cloud Vis
km
Sea
Height
m
Swell
Dir
 
Speed
knots
Gust
knots
hPa Trend Height
m
Period
s
Dir
18/11:30pm 14.6 S 3 5 1019.7 - 0.0 - - - - - - -
18/11:00pm 15.1 S 4 6 1019.9 - 0.0 - - - - - - -
18/10:30pm 15.8 S 5 7 1020.1 - 0.0 - - - - - - -
18/10:00pm 15.5 S 3 6 1020.3 - 0.0 - - - - - - -
18/09:30pm 16.8 S 6 10 1020.5 - 0.0 - - - - - - -
18/09:00pm 17.4 S 7 10 1020.2 - 0.0 - - - - - - -
18/08:30pm 17.8 S 7 10 1020.1 - 0.0 - - - - - - -
18/08:00pm 18.3 S 6 8 1019.8 - 0.0 - - - - - - -
18/07:30pm 19.3 S 7 9 1019.9 - 0.0 - - - - - - -
18/07:00pm 20.3 SSW 8 13 1019.6 - 0.0 - - - - - - -
18/06:30pm 20.2 SW 6 9 1019.3 - 0.0 - - - - - - -
18/06:00pm 20.4 SW 7 10 1019.1 - 0.0 - - - - - - -
18/05:30pm 21.4 SW 8 11 1019.0 - 0.0 - - - - - - -
18/05:00pm 22.5 SW 7 12 1018.8 - 0.0 - - - - - - -
18/04:30pm 22.1 SW 7 13 1019.0 - 0.0 - - - - - - -
18/04:00pm 22.3 SW 9 12 1018.9 - 0.0 - - - - - - -
18/03:30pm 22.3 SW 7 11 1019.0 - 0.0 - - - - - - -
18/03:00pm 23.7 SW 9 13 1019.2 - 0.0 - - - - - - -
18/02:30pm 23.4 WSW 9 13 1019.3 - 0.0 - - - - - - -
18/02:00pm 23.7 WSW 7 11 1019.3 - 0.0 - - - - - - -
18/01:30pm 24.5 WSW 8 10 1019.7 - 0.0 - - - - - - -
18/01:00pm 24.7 W 7 10 1020.1 - 0.0 - - - - - - -
18/12:30pm 24.6 W 7 10 1020.4 - 0.0 - - - - - - -
18/12:00pm 24.5 N 2 4 1020.8 - 0.0 - - - - - - -
18/11:30am 24.8 ESE 2 5 1021.5 - 0.0 - - - - - - -
18/11:00am 23.3 NNE 4 7 1021.8 - 0.0 - - - - - - -
18/10:30am 21.6 NE 5 10 1022.2 - 0.0 - - - - - - -
18/10:00am 21.6 NE 7 8 1022.2 - 0.0 - - - - - - -
18/09:30am 21.5 E 6 9 1022.8 - 0.0 - - - - - - -
18/09:00am 19.9 E 7 11 1023.1 - 0.0 - - - - - - -
18/08:30am 18.1 ESE 2 3 1023.3 - 0.0 - - - - - - -
18/08:00am 16.6 E 2 3 1023.2 - 0.0 - - - - - - -
18/07:30am 14.7 SE 4 5 1023.2 - 0.0 - - - - - - -
18/07:00am 12.9 SE 4 5 1023.0 - 0.0 - - - - - - -
18/06:30am 12.1 ESE 3 4 1023.1 - 0.0 - - - - - - -
18/06:00am 13.0 SE 4 5 1023.2 - 0.0 - - - - - - -
18/05:30am 11.2 S 2 3 1023.3 - 0.0 - - - - - - -
18/05:00am 12.8 SSE 2 3 1023.0 - 0.0 - - - - - - -
18/04:30am 13.7 SSE 4 7 1022.9 - 0.0 - - - - - - -
18/04:00am 13.2 SSE 3 5 1022.9 - 0.0 - - - - - - -
18/03:30am 13.7 SE 4 6 1023.1 - 0.0 - - - - - - -
18/03:00am 13.8 SE 5 9 1023.1 - 0.0 - - - - - - -
18/02:30am 13.4 SE 5 6 1023.3 - 0.0 - - - - - - -
18/02:00am 13.6 ESE 6 8 1023.4 - 0.0 - - - - - - -
18/01:30am 13.8 ESE 7 10 1023.6 - 0.0 - - - - - - -
18/01:00am 13.3 ESE 5 9 1023.5 - 0.0 - - - - - - -
18/12:30am 13.3 SE 5 6 1023.5 - 0.0 - - - - - - -
18/12:00am 14.6 SSE 6 8 1023.5 - 0.0 - - - - - - -
 
Date/Time
WST
Temp

°C
Wind Pressure Rain
since 9am
mm
Weather Cloud Vis
km
Sea
Height
m
Swell
Dir
 
Speed
knots
Gust
knots
hPa Trend Height
m
Period
s
Dir
17/11:30pm 14.7 SSE 6 8 1023.8 - 0.0 - - - - - - -
17/11:00pm 14.9 SSE 5 8 1023.7 - 0.0 - - - - - - -
17/10:30pm 14.7 S 3 4 1024.1 - 0.0 - - - - - - -
17/10:00pm 15.1 S 3 5 1023.9 - 0.0 - - - - - - -
17/09:30pm 15.9 S 4 5 1023.9 - 0.0 - - - - - - -
17/09:00pm 16.1 S 4 6 1023.6 - 0.0 - - - - - - -
17/08:30pm 17.2 S 5 8 1023.6 - 0.0 - - - - - - -
17/08:00pm 17.2 S 5 7 1023.2 - 0.0 - - - - - - -
17/07:30pm 17.9 S 5 7 1023.2 - 0.0 - - - - - - -
17/07:00pm 18.8 S 6 8 1022.7 - 0.0 - - - - - - -
17/06:30pm 19.4 S 6 10 1022.4 - 0.0 - - - - - - -
17/06:00pm 20.3 S 8 12 1021.9 - 0.0 - - - - - - -
17/05:30pm 21.2 S 9 13 1021.6 - 0.0 - - - - - - -
17/05:00pm 22.1 S 9 13 1021.2 - 0.0 - - - - - - -
17/04:30pm 23.3 S 8 12 1021.1 - 0.0 - - - - - - -
17/04:00pm 23.5 WSW 9 13 1020.9 - 0.0 - - - - - - -
17/03:30pm 23.9 W 8 13 1021.1 - 0.0 - - - - - - -
17/03:00pm 22.9 W 9 14 1021.0 - 0.0 - - - - - - -
17/02:30pm 23.2 W 10 13 1021.2 - 0.0 - - - - - - -
17/02:00pm 22.9 W 8 12 1021.1 - 0.0 - - - - - - -
17/01:30pm 22.3 W 9 12 1021.3 - 0.0 - - - - - - -
17/01:00pm 23.4 W 7 10 1021.3 - 0.0 - - - - - - -
17/12:30pm 22.8 W 8 11 1021.7 - 0.0 - - - - - - -
17/12:00pm 23.2 WNW 6 9 1021.9 - 0.0 - - - - - - -
17/11:30am 23.7 W 6 9 1022.2 - 0.0 - - - - - - -
17/11:00am 22.3 S 4 7 1022.3 - 0.0 - - - - - - -
17/10:30am 21.9 WSW 8 12 1022.7 - 0.0 - - - - - - -
17/10:00am 21.6 WSW 6 8 1022.5 - 0.0 - - - - - - -
17/09:30am 20.7 SSW 3 5 1022.3 - 0.0 - - - - - - -
17/09:00am 19.1 SSW 2 3 1022.3 - 0.2 - - - - - - -
17/08:30am 18.6 CALM 0 2 1022.4 - 0.2 - - - - - - -
17/08:00am 17.3 CALM 0 0 1021.8 - 0.2 - - - - - - -
17/07:30am 16.2 CALM 0 0 1021.5 - 0.2 - - - - - - -
17/07:00am 15.2 NNE 1 2 1021.1 - 0.2 - - - - - - -
17/06:30am 15.2 CALM 0 0 1021.0 - 0.2 - - - - - - -
17/06:00am 15.2 CALM 0 0 1020.7 - 0.2 - - - - - - -
17/05:30am 14.9 CALM 0 0 1020.6 - 0.2 - - - - - - -
17/05:00am 14.8 ESE 2 3 1020.3 - 0.2 - - - - - - -
17/04:30am 14.7 CALM 0 0 1020.3 - 0.2 - - - - - - -
17/04:00am 14.7 CALM 0 1 1020.1 - 0.2 - - - - - - -
17/03:30am 14.9 CALM 0 0 1020.1 - 0.2 - - - - - - -
17/03:00am 14.7 E 1 2 1020.0 - 0.2 - - - - - - -
17/02:30am 14.7 E 1 2 1020.2 - 0.2 - - - - - - -
17/02:00am 14.2 CALM 0 0 1020.3 - 0.2 - - - - - - -
17/01:30am 14.0 CALM 0 0 1020.5 - 0.2 - - - - - - -
17/01:00am 13.7 CALM 0 2 1020.3 - 0.2 - - - - - - -
17/12:30am 13.7 ESE 1 2 1020.5 - 0.2 - - - - - - -
17/12:00am 13.0 CALM 0 1 1020.3 - 0.2 - - - - - - -
 
Date/Time
WST
Temp

°C
Wind Pressure Rain
since 9am
mm
Weather Cloud Vis
km
Sea
Height
m
Swell
Dir
 
Speed
knots
Gust
knots
hPa Trend Height
m
Period
s
Dir
16/11:30pm 12.2 CALM 0 0 1020.6 - 0.2 - - - - - - -
16/11:00pm 12.1 CALM 0 0 1020.7 - 0.2 - - - - - - -
16/10:30pm 12.6 E 3 4 1020.9 - 0.2 - - - - - - -
16/10:00pm 13.3 SE 2 3 1020.8 - 0.2 - - - - - - -
16/09:30pm 15.8 S 2 3 1021.0 - 0.2 - - - - - - -
16/09:00pm 16.7 S 3 4 1020.8 - 0.2 - - - - - - -
16/08:30pm 17.3 S 3 4 1020.8 - 0.2 - - - - - - -
16/08:00pm 18.1 SW 4 8 1020.5 - 0.2 - - - - - - -
16/07:30pm 18.2 SW 4 7 1020.5 - 0.2 - - - - - - -
16/07:00pm 18.7 SW 6 9 1020.3 - 0.2 - - - - - - -
16/06:30pm 18.5 SW 5 9 1020.4 - 0.2 - - - - - - -
16/06:00pm 18.8 WSW 5 9 1020.3 - 0.2 - - - - - - -
16/05:30pm 19.3 WSW 6 9 1020.3 - 0.2 - - - - - - -
16/05:00pm 20.4 WSW 7 10 1020.2 - 0.2 - - - - - - -
16/04:30pm 21.0 W 7 11 1020.5 - 0.2 - - - - - - -
16/04:00pm 21.7 W 6 9 1020.5 - 0.2 - - - - - - -
16/03:30pm 21.6 W 5 7 1020.8 - 0.2 - - - - - - -
16/03:00pm 21.3 W 7 10 1020.9 - 0.2 - - - - - - -
16/02:30pm 21.7 W 5 9 1021.0 - 0.2 - - - - - - -
16/02:00pm 22.0 W 5 8 1021.1 - 0.2 - - - - - - -
16/01:30pm 22.4 W 5 8 1021.6 - 0.2 - - - - - - -
16/01:00pm 22.5 WSW 4 6 1021.9 - 0.2 - - - - - - -
16/12:30pm 21.2 W 6 7 1022.4 - 0.2 - - - - - - -
16/12:00pm 20.6 W 6 9 1022.8 - 0.2 Recent precip. - - - - - -
16/11:30am 21.5 W 7 10 1023.3 - 0.2 - - - - - - -
16/11:00am 21.1 W 6 8 1023.5 - 0.0 - - - - - - -
16/10:30am 22.6 E 2 4 1023.8 - 0.0 - - - - - - -
16/10:00am 19.6 SSW 2 5 1023.8 - 0.0 - - - - - - -
16/09:30am 18.9 ESE 2 4 1024.1 - 0.0 - - - - - - -
16/09:00am 17.4 ESE 1 2 1024.1 - 0.0 - - - - - - -
16/08:30am 15.3 ESE 1 2 1024.2 - 0.0 - - - - - - -
16/08:00am 13.4 CALM 0 3 1023.8 - 0.0 - - - - - - -
16/07:30am 10.3 CALM 0 0 1023.7 - 0.0 - - - - - - -
16/07:00am 8.9 CALM 0 0 1023.3 - 0.0 - - - - - - -
16/06:30am 8.9 CALM 0 0 1023.2 - 0.0 - - - - - - -
16/06:00am 8.5 ESE 1 2 1023.0 - 0.0 - - - - - - -
16/05:30am 10.0 E 1 2 1023.0 - 0.0 - - - - - - -
16/05:00am 10.0 CALM 0 0 1022.8 - 0.0 - - - - - - -
16/04:30am 9.6 CALM 0 0 1022.7 - 0.0 - - - - - - -
16/04:00am 10.1 CALM 0 0 1022.6 - 0.0 - - - - - - -
16/03:30am 11.1 S 2 3 1022.7 - 0.0 - - - - - - -
16/03:00am 11.3 S 1 2 1022.6 - 0.0 - - - - - - -
16/02:30am 12.0 SSW 3 4 1022.8 - 0.0 - - - - - - -
16/02:00am 11.4 S 1 2 1022.9 - 0.0 - - - - - - -
16/01:30am 12.3 CALM 0 0 1023.2 - 0.0 - - - - - - -
16/01:00am 14.0 S 2 2 1023.0 - 0.0 - - - - - - -
16/12:30am 14.7 SSW 3 4 1023.2 - 0.0 - - - - - - -
16/12:00am 15.2 S 3 4 1023.0 - 0.0 - - - - - - -

Other Formats:

Comma delimited format used in spreadsheet applications
http://www.bom.gov.au/fwo/IDW60701/IDW60701.94604.axf

JavaScript Object Notation format (JSON) in row-major order
http://www.bom.gov.au/fwo/IDW60701/IDW60701.94604.json